createdAt,value
2023-03-16T00:01:45.835Z,101603.25
2023-03-16T00:06:48.547Z,101610.31
2023-03-16T00:11:51.261Z,101617.94
2023-03-16T00:16:55.316Z,101620.44
2023-03-16T00:21:58.250Z,101612.69
2023-03-16T00:27:01.020Z,101616.63
2023-03-16T00:32:05.603Z,101621.41
2023-03-16T00:37:08.563Z,101623.16
2023-03-16T00:42:12.488Z,101623.38
2023-03-16T00:47:16.643Z,101617.03
2023-03-16T00:52:20.067Z,101619.69
2023-03-16T00:57:25.102Z,101617.94
2023-03-16T01:02:29.263Z,101615.44
2023-03-16T01:07:32.301Z,101614.59
2023-03-16T01:12:35.195Z,101607.34
2023-03-16T01:17:39.337Z,101599.34
2023-03-16T01:22:42.274Z,101598.22
2023-03-16T01:27:45.570Z,101604.25
2023-03-16T01:32:49.795Z,101592.41
2023-03-16T01:37:52.560Z,101592.25
2023-03-16T01:43:02.860Z,101597.28
2023-03-16T01:48:10.285Z,101600.72
2023-03-16T01:53:13.297Z,101603.03
2023-03-16T01:58:16.664Z,101598.97
2023-03-16T02:03:22.587Z,101596.84
2023-03-16T02:08:31.897Z,101594.00
2023-03-16T02:13:36.824Z,101588.63
2023-03-16T02:18:41.944Z,101582.00
2023-03-16T02:23:46.297Z,101577.56
2023-03-16T02:28:59.419Z,101565.34
2023-03-16T02:34:04.843Z,101568.28
2023-03-16T02:39:08.107Z,101569.78
2023-03-16T02:44:26.122Z,101572.16
2023-03-16T02:49:37.508Z,101573.94
2023-03-16T02:54:40.722Z,101581.00
2023-03-16T02:59:45.258Z,101579.56
2023-03-16T03:04:49.490Z,101574.03
2023-03-16T03:09:53.566Z,101577.25
2023-03-16T03:14:57.289Z,101579.84
2023-03-16T03:20:07.863Z,101594.38
2023-03-16T03:25:10.905Z,101581.53
2023-03-16T03:30:16.616Z,101581.44
2023-03-16T03:35:21.544Z,101575.97
2023-03-16T03:40:24.676Z,101576.81
2023-03-16T03:45:34.042Z,101578.97
2023-03-16T03:50:40.519Z,101583.97
2023-03-16T03:56:00.795Z,101587.41
2023-03-16T04:01:03.599Z,101576.97
2023-03-16T04:06:09.812Z,101580.00
2023-03-16T04:11:12.722Z,101575.09
2023-03-16T04:16:17.186Z,101582.13
2023-03-16T04:21:25.670Z,101570.53
2023-03-16T04:26:28.433Z,101562.13
2023-03-16T04:31:31.290Z,101569.53
2023-03-16T04:36:35.682Z,101562.94
2023-03-16T04:41:38.701Z,101572.75
2023-03-16T04:46:53.576Z,101575.44
2023-03-16T04:51:59.549Z,101563.25
2023-03-16T04:57:03.580Z,101565.59
2023-03-16T05:02:16.951Z,101554.38
2023-03-16T05:07:21.447Z,101547.69
2023-03-16T05:12:29.025Z,101552.13
2023-03-16T05:17:36.520Z,101560.88
2023-03-16T05:22:44.008Z,101564.91
2023-03-16T05:27:54.954Z,101557.44
2023-03-16T05:33:21.570Z,101557.69
2023-03-16T05:38:29.800Z,101570.94
2023-03-16T05:43:34.332Z,101575.63
2023-03-16T05:48:37.968Z,101579.69
2023-03-16T05:53:46.716Z,101578.44
2023-03-16T05:58:58.346Z,101585.25
2023-03-16T06:04:03.096Z,101580.19
2023-03-16T06:09:11.207Z,101583.63
2023-03-16T06:14:14.897Z,101583.38
2023-03-16T06:19:18.382Z,101582.75
2023-03-16T06:24:25.333Z,101583.69
2023-03-16T06:29:28.618Z,101590.06
2023-03-16T06:34:31.747Z,101597.66
2023-03-16T06:39:36.222Z,101600.44
2023-03-16T06:44:39.179Z,101592.31
2023-03-16T06:49:46.888Z,101611.50
2023-03-16T06:54:58.163Z,101603.44
2023-03-16T07:00:03.934Z,101607.44
2023-03-16T07:05:07.529Z,101610.22
2023-03-16T07:10:14.563Z,101603.44
2023-03-16T07:15:17.558Z,101606.81
2023-03-16T07:20:23.514Z,101602.56
2023-03-16T07:25:27.950Z,101597.91
2023-03-16T07:30:31.248Z,101595.22
2023-03-16T07:35:34.571Z,101606.16
2023-03-16T07:40:39.285Z,101606.31
2023-03-16T07:45:50.452Z,101607.16
2023-03-16T07:50:55.189Z,101604.59
2023-03-16T07:56:00.490Z,101612.59
2023-03-16T08:01:04.109Z,101621.28
2023-03-16T08:06:07.554Z,101615.81
2023-03-16T08:11:12.890Z,101609.19
2023-03-16T08:16:26.460Z,101615.84
2023-03-16T08:21:30.258Z,101613.59
2023-03-16T08:26:34.835Z,101605.50
2023-03-16T08:31:39.545Z,101609.59
2023-03-16T08:36:47.543Z,101597.41
2023-03-16T08:41:52.088Z,101603.78
2023-03-16T08:47:02.497Z,101595.81
2023-03-16T08:52:06.260Z,101599.41
2023-03-16T08:57:11.001Z,101594.00
2023-03-16T09:02:15.085Z,101592.22
2023-03-16T09:07:18.708Z,101576.69
2023-03-16T09:12:23.441Z,101580.09
2023-03-16T09:17:26.995Z,101587.97
2023-03-16T09:22:30.093Z,101573.47
2023-03-16T09:27:35.044Z,101568.41
2023-03-16T09:32:38.321Z,101571.88
2023-03-16T09:37:45.625Z,101561.16
2023-03-16T09:43:20.037Z,101557.41
2023-03-16T09:48:25.141Z,101555.84
2023-03-16T09:53:31.271Z,101549.25
2023-03-16T09:58:36.550Z,101541.84
2023-03-16T10:04:03.085Z,101534.31
2023-03-16T10:09:19.122Z,101531.78
2023-03-16T10:14:28.317Z,101526.09
2023-03-16T10:19:38.417Z,101524.56
2023-03-16T10:24:48.523Z,101529.50
2023-03-16T10:29:52.680Z,101516.56
2023-03-16T10:34:59.284Z,101517.09
2023-03-16T10:40:05.038Z,101514.84
2023-03-16T10:45:23.785Z,101500.94
2023-03-16T10:50:27.695Z,101488.56
2023-03-16T10:55:35.131Z,101500.38
2023-03-16T11:00:45.362Z,101484.88
2023-03-16T11:05:48.111Z,101488.56
2023-03-16T11:10:58.671Z,101478.25
2023-03-16T11:16:07.867Z,101466.09
2023-03-16T11:21:18.354Z,101452.41
2023-03-16T11:26:27.711Z,101455.13
2023-03-16T11:31:43.388Z,101448.00
2023-03-16T11:36:51.623Z,101447.53
2023-03-16T11:42:04.964Z,101450.38
2023-03-16T11:47:30.055Z,101439.50
2023-03-16T11:52:46.832Z,101425.91
2023-03-16T11:58:01.355Z,101407.03
2023-03-16T12:03:45.829Z,101399.16
2023-03-16T12:09:08.906Z,101406.09
2023-03-16T12:14:21.717Z,101397.09
2023-03-16T12:19:33.600Z,101392.47
2023-03-16T12:24:42.446Z,101392.59
2023-03-16T12:29:56.862Z,101382.38
2023-03-16T12:35:07.365Z,101356.69
2023-03-16T12:40:25.957Z,101359.38
2023-03-16T12:45:35.134Z,101338.34
2023-03-16T12:50:50.466Z,101342.25
2023-03-16T12:55:53.509Z,101334.69
2023-03-16T13:00:59.154Z,101328.47
2023-03-16T13:06:03.536Z,101320.16
2023-03-16T13:11:09.558Z,101319.63
2023-03-16T13:16:25.129Z,101306.78
2023-03-16T13:21:41.658Z,101293.94
2023-03-16T13:26:48.131Z,101295.66
2023-03-16T13:31:52.426Z,101286.66
2023-03-16T13:36:58.777Z,101280.69
2023-03-16T13:42:05.037Z,101284.97
2023-03-16T13:47:08.643Z,101280.78
2023-03-16T13:52:20.750Z,101278.28
2023-03-16T13:57:25.971Z,101272.19
2023-03-16T14:02:29.184Z,101271.28
2023-03-16T14:07:38.153Z,101269.59
2023-03-16T14:12:52.439Z,101257.63
2023-03-16T14:18:03.433Z,101251.72
2023-03-16T14:23:18.502Z,101245.50
2023-03-16T14:28:28.070Z,101233.22
2023-03-16T14:33:32.505Z,101222.06
2023-03-16T14:38:38.188Z,101220.38
2023-03-16T14:43:47.730Z,101209.09
2023-03-16T14:48:50.504Z,101202.50
2023-03-16T14:53:54.579Z,101189.59
2023-03-16T14:58:57.307Z,101177.66
2023-03-16T15:04:00.051Z,101173.66
2023-03-16T15:09:04.346Z,101169.53
2023-03-16T15:14:35.357Z,101162.31
2023-03-16T15:19:38.202Z,101153.13
2023-03-16T15:24:42.505Z,101155.50
2023-03-16T15:29:45.249Z,101139.16
2023-03-16T15:34:48.018Z,101137.09
2023-03-16T15:39:52.306Z,101135.16
2023-03-16T15:44:55.283Z,101143.66
2023-03-16T15:49:58.000Z,101137.25
2023-03-16T15:55:07.659Z,101141.25
2023-03-16T16:00:34.948Z,101132.97
2023-03-16T16:05:37.814Z,101129.75
2023-03-16T16:10:43.085Z,101121.84
2023-03-16T16:15:47.174Z,101123.16
2023-03-16T16:20:51.349Z,101129.47
2023-03-16T16:25:58.501Z,101135.56
2023-03-16T16:31:02.431Z,101141.13
2023-03-16T16:36:07.470Z,101127.94
2023-03-16T16:41:25.140Z,101123.75
2023-03-16T16:46:29.621Z,101113.94
2023-03-16T16:51:33.151Z,101124.13
2023-03-16T16:56:38.608Z,101109.13
2023-03-16T17:01:41.883Z,101107.25
2023-03-16T17:06:44.947Z,101100.72
2023-03-16T17:11:49.394Z,101101.50
2023-03-16T17:16:53.350Z,101087.53
2023-03-16T17:21:58.376Z,101095.94
2023-03-16T17:27:04.542Z,101108.44
2023-03-16T17:32:19.268Z,101117.22
2023-03-16T17:37:23.199Z,101108.38
2023-03-16T17:42:27.465Z,101111.34
2023-03-16T17:47:33.155Z,101102.31
2023-03-16T17:52:37.154Z,101102.97
2023-03-16T17:57:41.434Z,101094.53
2023-03-16T18:02:50.595Z,101079.66
2023-03-16T18:07:54.542Z,101079.88
2023-03-16T18:13:02.454Z,101068.00
2023-03-16T18:18:07.771Z,101061.16
2023-03-16T18:23:16.370Z,101057.06
2023-03-16T18:28:21.825Z,101057.13
2023-03-16T18:33:28.600Z,101063.31
2023-03-16T18:38:33.695Z,101057.78
2023-03-16T18:43:37.796Z,101048.75
2023-03-16T18:48:40.633Z,101046.69
2023-03-16T18:53:44.057Z,101054.75
2023-03-16T18:58:48.582Z,101056.91
2023-03-16T19:03:52.325Z,101041.59
2023-03-16T19:08:55.863Z,101035.50
2023-03-16T19:14:00.205Z,101041.50
2023-03-16T19:19:03.257Z,101026.59
2023-03-16T19:24:08.393Z,101039.88
2023-03-16T19:29:15.885Z,101033.00
2023-03-16T19:34:19.113Z,101027.81
2023-03-16T19:39:21.972Z,101020.00
2023-03-16T19:44:28.482Z,101006.31
2023-03-16T19:49:31.733Z,100994.00
2023-03-16T19:54:35.088Z,100991.59
2023-03-16T19:59:39.407Z,100997.19
2023-03-16T20:04:42.257Z,101003.16
2023-03-16T20:09:45.339Z,100997.97
2023-03-16T20:14:51.453Z,100993.38
2023-03-16T20:19:54.294Z,100992.41
2023-03-16T20:24:57.998Z,100981.06
2023-03-16T20:30:02.823Z,100973.66
2023-03-16T20:35:14.565Z,100973.13
2023-03-16T20:40:18.518Z,100968.00
2023-03-16T20:45:25.698Z,100954.94
2023-03-16T20:50:31.421Z,100948.31
2023-03-16T20:55:34.270Z,100949.81
2023-03-16T21:00:40.365Z,100949.25
2023-03-16T21:05:43.340Z,100927.00
2023-03-16T21:10:48.514Z,100919.22
2023-03-16T21:15:53.392Z,100923.09
2023-03-16T21:20:56.996Z,100920.06
2023-03-16T21:26:03.662Z,100915.44
2023-03-16T21:31:08.396Z,100909.72
2023-03-16T21:36:15.756Z,100896.56
2023-03-16T21:41:18.650Z,100888.47
2023-03-16T21:46:25.488Z,100887.59
2023-03-16T21:51:31.336Z,100883.75
2023-03-16T21:56:34.212Z,100890.84
2023-03-16T22:01:50.949Z,100887.22
2023-03-16T22:06:57.372Z,100880.16
2023-03-16T22:12:00.382Z,100876.97
2023-03-16T22:17:05.387Z,100884.50
2023-03-16T22:22:14.161Z,100875.38
2023-03-16T22:27:21.949Z,100877.22
2023-03-16T22:32:26.127Z,100889.91
2023-03-16T22:37:29.941Z,100874.88
2023-03-16T22:42:35.810Z,100864.50
2023-03-16T22:47:40.040Z,100865.03
2023-03-16T22:52:43.537Z,100861.34
2023-03-16T22:57:47.548Z,100865.94
2023-03-16T23:02:51.735Z,100835.00
2023-03-16T23:07:55.534Z,100838.69
2023-03-16T23:13:00.517Z,100833.78
2023-03-16T23:18:05.146Z,100820.09
2023-03-16T23:23:07.851Z,100804.09
2023-03-16T23:28:13.204Z,100822.56
2023-03-16T23:33:17.618Z,100820.28
2023-03-16T23:38:21.149Z,100825.78
2023-03-16T23:43:23.876Z,100816.16
2023-03-16T23:48:28.085Z,100805.22
2023-03-16T23:53:31.097Z,100799.56
2023-03-16T23:58:33.867Z,100797.63
